KMRF/MRF METAR and TAF weather

Enter ICAO airport designator
Station Type Date Time Source
KMRF METAR 2019/10/17 04:56 UTC NOAA

KMRF 170456Z AUTO 00000KT 10SM CLR 08/06 A3024 RMK AO2 SLP212 T00780061


Station Type Date Time Source
KMRF Decoded METAR 2019/10/17 04:56 UTC NOAA

Marfa, TX, United States (KMRF) 30-22N 104-01W 1481M
Oct 17, 2019 - 12:56 AM EDT / 2019.10.17 0456 UTC
Wind: Calm:0
Visibility: 10 mile(s):0
Sky conditions: clear
Temperature: 46.0 F (7.8 C)
Dew Point: 43.0 F (6.1 C)
Relative Humidity: 88%
Pressure (altimeter): 30.24 in. Hg (1024 hPa)
ob: KMRF 170456Z AUTO 00000KT 10SM CLR 08/06 A3024 RMK AO2 SLP212 T00780061
cycle: 5

Station Type Date Time Source
KMRF TAF UTC NOAA

Error!

Example: see airport list